sensor_id;sensor_type;location;lat;lon;timestamp;P1;durP1;ratioP1;P2;durP2;ratioP2
35993;SDS011;22066;54.274;18.578;2022-09-29T00:02:21;17.50;;;8.65;;
35993;SDS011;22066;54.274;18.578;2022-09-29T00:04:47;16.02;;;8.15;;
35993;SDS011;22066;54.274;18.578;2022-09-29T00:07:13;15.18;;;7.07;;
35993;SDS011;22066;54.274;18.578;2022-09-29T00:09:39;14.18;;;8.18;;
35993;SDS011;22066;54.274;18.578;2022-09-29T00:12:05;13.88;;;7.43;;
35993;SDS011;22066;54.274;18.578;2022-09-29T00:14:31;20.15;;;8.18;;
35993;SDS011;22066;54.274;18.578;2022-09-29T00:16:57;16.50;;;7.80;;
35993;SDS011;22066;54.274;18.578;2022-09-29T00:19:23;15.10;;;7.80;;
35993;SDS011;22066;54.274;18.578;2022-09-29T00:21:49;17.73;;;7.97;;
35993;SDS011;22066;54.274;18.578;2022-09-29T00:24:15;15.52;;;7.25;;
35993;SDS011;22066;54.274;18.578;2022-09-29T00:26:41;14.73;;;7.60;;
35993;SDS011;22066;54.274;18.578;2022-09-29T00:29:10;13.80;;;7.38;;
35993;SDS011;22066;54.274;18.578;2022-09-29T00:31:36;21.30;;;8.88;;
35993;SDS011;22066;54.274;18.578;2022-09-29T00:34:02;18.05;;;8.32;;
35993;SDS011;22066;54.274;18.578;2022-09-29T00:36:29;17.38;;;8.10;;
35993;SDS011;22066;54.274;18.578;2022-09-29T00:38:55;16.65;;;7.97;;
35993;SDS011;22066;54.274;18.578;2022-09-29T00:41:22;17.75;;;8.05;;
35993;SDS011;22066;54.274;18.578;2022-09-29T00:43:50;13.27;;;7.22;;
35993;SDS011;22066;54.274;18.578;2022-09-29T00:46:18;17.15;;;8.45;;
35993;SDS011;22066;54.274;18.578;2022-09-29T00:48:46;14.63;;;8.20;;
35993;SDS011;22066;54.274;18.578;2022-09-29T00:51:12;15.63;;;7.88;;
35993;SDS011;22066;54.274;18.578;2022-09-29T00:53:39;14.48;;;7.50;;
35993;SDS011;22066;54.274;18.578;2022-09-29T00:56:07;15.55;;;7.38;;
35993;SDS011;22066;54.274;18.578;2022-09-29T00:58:38;11.80;;;6.68;;
35993;SDS011;22066;54.274;18.578;2022-09-29T01:01:06;13.38;;;6.95;;
35993;SDS011;22066;54.274;18.578;2022-09-29T01:03:34;14.10;;;6.75;;
35993;SDS011;22066;54.274;18.578;2022-09-29T01:06:02;12.73;;;7.00;;
35993;SDS011;22066;54.274;18.578;2022-09-29T01:08:38;13.95;;;6.60;;
35993;SDS011;22066;54.274;18.578;2022-09-29T01:11:06;14.57;;;7.10;;
35993;SDS011;22066;54.274;18.578;2022-09-29T01:13:34;13.63;;;6.22;;
35993;SDS011;22066;54.274;18.578;2022-09-29T01:16:00;12.85;;;6.45;;
35993;SDS011;22066;54.274;18.578;2022-09-29T01:18:26;14.43;;;6.32;;
35993;SDS011;22066;54.274;18.578;2022-09-29T01:23:34;11.43;;;5.90;;
35993;SDS011;22066;54.274;18.578;2022-09-29T01:28:54;10.45;;;5.03;;
35993;SDS011;22066;54.274;18.578;2022-09-29T01:31:36;10.48;;;5.53;;
35993;SDS011;22066;54.274;18.578;2022-09-29T01:34:07;12.20;;;5.45;;
35993;SDS011;22066;54.274;18.578;2022-09-29T01:36:47;11.90;;;5.97;;
35993;SDS011;22066;54.274;18.578;2022-09-29T01:39:29;10.50;;;5.20;;
35993;SDS011;22066;54.274;18.578;2022-09-29T01:42:06;12.65;;;6.18;;
35993;SDS011;22066;54.274;18.578;2022-09-29T01:47:11;13.32;;;6.78;;
35993;SDS011;22066;54.274;18.578;2022-09-29T01:49:45;12.77;;;6.13;;
35993;SDS011;22066;54.274;18.578;2022-09-29T01:52:14;13.27;;;6.85;;
35993;SDS011;22066;54.274;18.578;2022-09-29T01:54:49;15.02;;;6.38;;
35993;SDS011;22066;54.274;18.578;2022-09-29T01:57:20;11.57;;;5.97;;
35993;SDS011;22066;54.274;18.578;2022-09-29T02:02:24;15.90;;;6.32;;
35993;SDS011;22066;54.274;18.578;2022-09-29T02:04:52;10.90;;;5.45;;
35993;SDS011;22066;54.274;18.578;2022-09-29T02:07:52;15.32;;;6.50;;
35993;SDS011;22066;54.274;18.578;2022-09-29T02:10:15;11.48;;;5.35;;
35993;SDS011;22066;54.274;18.578;2022-09-29T02:12:42;11.75;;;6.03;;
35993;SDS011;22066;54.274;18.578;2022-09-29T02:15:10;11.80;;;5.68;;
35993;SDS011;22066;54.274;18.578;2022-09-29T02:20:03;11.10;;;5.57;;
35993;SDS011;22066;54.274;18.578;2022-09-29T02:22:30;10.05;;;5.60;;
35993;SDS011;22066;54.274;18.578;2022-09-29T02:24:57;11.15;;;5.28;;
35993;SDS011;22066;54.274;18.578;2022-09-29T02:27:24;11.13;;;5.43;;
35993;SDS011;22066;54.274;18.578;2022-09-29T02:29:52;10.48;;;5.00;;
35993;SDS011;22066;54.274;18.578;2022-09-29T02:32:19;9.70;;;4.85;;
35993;SDS011;22066;54.274;18.578;2022-09-29T02:34:45;8.80;;;4.60;;
35993;SDS011;22066;54.274;18.578;2022-09-29T02:37:21;8.70;;;4.75;;
35993;SDS011;22066;54.274;18.578;2022-09-29T03:00:51;8.48;;;4.60;;
35993;SDS011;22066;54.274;18.578;2022-09-29T03:03:18;8.85;;;4.75;;
35993;SDS011;22066;54.274;18.578;2022-09-29T03:05:44;9.52;;;4.78;;
35993;SDS011;22066;54.274;18.578;2022-09-29T03:08:10;10.05;;;4.88;;
35993;SDS011;22066;54.274;18.578;2022-09-29T03:10:36;9.13;;;4.45;;
35993;SDS011;22066;54.274;18.578;2022-09-29T03:13:02;8.70;;;4.72;;
35993;SDS011;22066;54.274;18.578;2022-09-29T03:15:28;8.98;;;4.63;;
35993;SDS011;22066;54.274;18.578;2022-09-29T03:17:54;11.75;;;5.47;;
35993;SDS011;22066;54.274;18.578;2022-09-29T03:20:21;10.13;;;4.70;;
35993;SDS011;22066;54.274;18.578;2022-09-29T03:22:47;8.43;;;4.75;;
35993;SDS011;22066;54.274;18.578;2022-09-29T03:25:13;10.23;;;4.70;;
35993;SDS011;22066;54.274;18.578;2022-09-29T03:27:39;11.20;;;4.65;;
35993;SDS011;22066;54.274;18.578;2022-09-29T03:30:05;9.35;;;5.13;;
35993;SDS011;22066;54.274;18.578;2022-09-29T03:32:31;7.95;;;4.70;;
35993;SDS011;22066;54.274;18.578;2022-09-29T03:34:57;7.38;;;4.35;;
35993;SDS011;22066;54.274;18.578;2022-09-29T03:37:24;9.15;;;4.47;;
35993;SDS011;22066;54.274;18.578;2022-09-29T03:39:50;9.57;;;4.70;;
35993;SDS011;22066;54.274;18.578;2022-09-29T03:42:16;9.13;;;4.68;;
35993;SDS011;22066;54.274;18.578;2022-09-29T03:44:42;7.82;;;3.95;;
35993;SDS011;22066;54.274;18.578;2022-09-29T03:47:08;10.30;;;4.13;;
35993;SDS011;22066;54.274;18.578;2022-09-29T03:49:34;6.82;;;4.28;;
35993;SDS011;22066;54.274;18.578;2022-09-29T03:52:00;8.38;;;3.88;;
35993;SDS011;22066;54.274;18.578;2022-09-29T03:54:26;7.07;;;3.95;;
35993;SDS011;22066;54.274;18.578;2022-09-29T03:56:52;7.80;;;4.15;;
35993;SDS011;22066;54.274;18.578;2022-09-29T03:59:18;9.80;;;4.03;;
35993;SDS011;22066;54.274;18.578;2022-09-29T04:01:44;7.28;;;4.28;;
35993;SDS011;22066;54.274;18.578;2022-09-29T04:04:10;6.85;;;3.90;;
35993;SDS011;22066;54.274;18.578;2022-09-29T04:06:36;7.70;;;4.40;;
35993;SDS011;22066;54.274;18.578;2022-09-29T04:09:02;7.18;;;3.80;;
35993;SDS011;22066;54.274;18.578;2022-09-29T04:11:28;7.47;;;3.58;;
35993;SDS011;22066;54.274;18.578;2022-09-29T04:13:54;7.35;;;4.03;;
35993;SDS011;22066;54.274;18.578;2022-09-29T04:16:20;6.95;;;3.72;;
35993;SDS011;22066;54.274;18.578;2022-09-29T04:18:46;8.10;;;4.38;;
35993;SDS011;22066;54.274;18.578;2022-09-29T04:21:12;6.45;;;4.00;;
35993;SDS011;22066;54.274;18.578;2022-09-29T04:23:38;11.10;;;4.43;;
35993;SDS011;22066;54.274;18.578;2022-09-29T04:26:05;9.15;;;3.90;;
35993;SDS011;22066;54.274;18.578;2022-09-29T04:28:32;7.13;;;4.00;;
35993;SDS011;22066;54.274;18.578;2022-09-29T04:30:58;9.60;;;4.57;;
35993;SDS011;22066;54.274;18.578;2022-09-29T04:33:24;7.43;;;3.42;;
35993;SDS011;22066;54.274;18.578;2022-09-29T04:35:50;7.90;;;3.80;;
35993;SDS011;22066;54.274;18.578;2022-09-29T04:38:16;7.47;;;3.60;;
35993;SDS011;22066;54.274;18.578;2022-09-29T04:40:42;6.20;;;3.35;;
35993;SDS011;22066;54.274;18.578;2022-09-29T04:43:08;14.50;;;4.00;;
35993;SDS011;22066;54.274;18.578;2022-09-29T04:45:34;6.68;;;4.05;;
35993;SDS011;22066;54.274;18.578;2022-09-29T04:48:00;6.07;;;3.70;;
35993;SDS011;22066;54.274;18.578;2022-09-29T04:50:26;6.57;;;4.10;;
35993;SDS011;22066;54.274;18.578;2022-09-29T04:52:53;7.47;;;3.50;;
35993;SDS011;22066;54.274;18.578;2022-09-29T04:55:19;5.95;;;3.70;;
35993;SDS011;22066;54.274;18.578;2022-09-29T04:57:45;16.63;;;3.97;;
35993;SDS011;22066;54.274;18.578;2022-09-29T05:00:12;6.18;;;3.60;;
35993;SDS011;22066;54.274;18.578;2022-09-29T05:02:39;8.05;;;3.78;;
35993;SDS011;22066;54.274;18.578;2022-09-29T05:05:05;6.90;;;3.40;;
35993;SDS011;22066;54.274;18.578;2022-09-29T05:07:33;9.52;;;4.07;;
35993;SDS011;22066;54.274;18.578;2022-09-29T05:09:59;6.90;;;4.22;;
35993;SDS011;22066;54.274;18.578;2022-09-29T05:12:25;7.68;;;3.90;;
35993;SDS011;22066;54.274;18.578;2022-09-29T05:14:51;12.27;;;4.05;;
35993;SDS011;22066;54.274;18.578;2022-09-29T05:17:17;7.75;;;4.05;;
35993;SDS011;22066;54.274;18.578;2022-09-29T05:19:44;8.68;;;4.40;;
35993;SDS011;22066;54.274;18.578;2022-09-29T05:22:10;8.88;;;4.45;;
35993;SDS011;22066;54.274;18.578;2022-09-29T05:24:36;7.20;;;3.83;;
35993;SDS011;22066;54.274;18.578;2022-09-29T05:27:02;9.77;;;4.10;;
35993;SDS011;22066;54.274;18.578;2022-09-29T05:29:28;8.65;;;4.20;;
35993;SDS011;22066;54.274;18.578;2022-09-29T05:31:54;8.82;;;4.22;;
35993;SDS011;22066;54.274;18.578;2022-09-29T05:34:20;8.00;;;4.10;;
35993;SDS011;22066;54.274;18.578;2022-09-29T05:36:46;15.77;;;4.90;;
35993;SDS011;22066;54.274;18.578;2022-09-29T05:39:12;8.77;;;4.47;;
35993;SDS011;22066;54.274;18.578;2022-09-29T05:41:38;8.70;;;4.90;;
35993;SDS011;22066;54.274;18.578;2022-09-29T05:44:04;8.38;;;4.55;;
35993;SDS011;22066;54.274;18.578;2022-09-29T05:46:30;9.43;;;5.18;;
35993;SDS011;22066;54.274;18.578;2022-09-29T05:48:56;9.05;;;4.63;;
35993;SDS011;22066;54.274;18.578;2022-09-29T05:51:23;8.27;;;4.20;;
35993;SDS011;22066;54.274;18.578;2022-09-29T05:53:51;8.57;;;4.68;;
35993;SDS011;22066;54.274;18.578;2022-09-29T05:56:21;8.75;;;4.75;;
35993;SDS011;22066;54.274;18.578;2022-09-29T05:58:48;9.85;;;5.68;;
35993;SDS011;22066;54.274;18.578;2022-09-29T06:01:15;8.73;;;5.13;;
35993;SDS011;22066;54.274;18.578;2022-09-29T06:03:41;9.35;;;4.38;;
35993;SDS011;22066;54.274;18.578;2022-09-29T06:06:08;8.75;;;5.13;;
35993;SDS011;22066;54.274;18.578;2022-09-29T06:08:35;9.35;;;4.82;;
35993;SDS011;22066;54.274;18.578;2022-09-29T06:11:04;8.00;;;5.15;;
35993;SDS011;22066;54.274;18.578;2022-09-29T06:13:31;10.85;;;5.53;;
35993;SDS011;22066;54.274;18.578;2022-09-29T06:15:57;9.90;;;5.38;;
35993;SDS011;22066;54.274;18.578;2022-09-29T06:18:23;13.88;;;5.88;;
35993;SDS011;22066;54.274;18.578;2022-09-29T06:20:49;10.32;;;5.55;;
35993;SDS011;22066;54.274;18.578;2022-09-29T06:23:15;10.60;;;5.93;;
35993;SDS011;22066;54.274;18.578;2022-09-29T06:25:41;11.27;;;5.30;;
35993;SDS011;22066;54.274;18.578;2022-09-29T06:28:07;11.68;;;5.70;;
35993;SDS011;22066;54.274;18.578;2022-09-29T06:30:33;9.85;;;5.65;;
35993;SDS011;22066;54.274;18.578;2022-09-29T06:32:59;9.18;;;5.55;;
35993;SDS011;22066;54.274;18.578;2022-09-29T06:35:26;8.88;;;5.07;;
35993;SDS011;22066;54.274;18.578;2022-09-29T06:38:10;10.65;;;4.63;;
35993;SDS011;22066;54.274;18.578;2022-09-29T06:40:36;9.27;;;4.97;;
35993;SDS011;22066;54.274;18.578;2022-09-29T06:43:02;9.48;;;5.18;;
35993;SDS011;22066;54.274;18.578;2022-09-29T06:45:28;11.25;;;4.22;;
35993;SDS011;22066;54.274;18.578;2022-09-29T06:47:58;8.27;;;4.43;;
35993;SDS011;22066;54.274;18.578;2022-09-29T06:50:24;7.35;;;4.38;;
35993;SDS011;22066;54.274;18.578;2022-09-29T06:52:50;9.70;;;4.40;;
35993;SDS011;22066;54.274;18.578;2022-09-29T06:55:16;8.75;;;4.50;;
35993;SDS011;22066;54.274;18.578;2022-09-29T06:57:43;8.13;;;4.55;;
35993;SDS011;22066;54.274;18.578;2022-09-29T07:00:09;5.85;;;3.25;;
35993;SDS011;22066;54.274;18.578;2022-09-29T07:02:36;6.40;;;3.97;;
35993;SDS011;22066;54.274;18.578;2022-09-29T07:05:02;7.65;;;4.40;;
35993;SDS011;22066;54.274;18.578;2022-09-29T07:07:28;8.23;;;3.90;;
35993;SDS011;22066;54.274;18.578;2022-09-29T07:09:54;9.63;;;4.32;;
35993;SDS011;22066;54.274;18.578;2022-09-29T07:12:20;9.70;;;4.63;;
35993;SDS011;22066;54.274;18.578;2022-09-29T07:14:47;8.38;;;3.72;;
35993;SDS011;22066;54.274;18.578;2022-09-29T07:17:13;7.68;;;3.78;;
35993;SDS011;22066;54.274;18.578;2022-09-29T07:19:39;8.18;;;3.70;;
35993;SDS011;22066;54.274;18.578;2022-09-29T07:22:05;6.30;;;2.72;;
35993;SDS011;22066;54.274;18.578;2022-09-29T07:24:33;8.75;;;3.90;;
35993;SDS011;22066;54.274;18.578;2022-09-29T07:26:59;8.45;;;3.30;;
35993;SDS011;22066;54.274;18.578;2022-09-29T07:29:25;7.13;;;2.75;;
35993;SDS011;22066;54.274;18.578;2022-09-29T07:31:55;8.65;;;4.65;;
35993;SDS011;22066;54.274;18.578;2022-09-29T07:34:21;8.70;;;4.40;;
35993;SDS011;22066;54.274;18.578;2022-09-29T07:36:47;9.20;;;4.47;;
35993;SDS011;22066;54.274;18.578;2022-09-29T07:39:13;8.98;;;3.80;;
35993;SDS011;22066;54.274;18.578;2022-09-29T07:41:39;8.77;;;3.30;;
35993;SDS011;22066;54.274;18.578;2022-09-29T07:44:05;5.28;;;2.90;;
35993;SDS011;22066;54.274;18.578;2022-09-29T07:46:31;6.25;;;2.95;;
35993;SDS011;22066;54.274;18.578;2022-09-29T07:48:57;7.53;;;3.33;;
35993;SDS011;22066;54.274;18.578;2022-09-29T07:51:23;6.35;;;3.35;;
35993;SDS011;22066;54.274;18.578;2022-09-29T07:53:49;5.38;;;3.00;;
35993;SDS011;22066;54.274;18.578;2022-09-29T07:56:16;6.30;;;3.25;;
35993;SDS011;22066;54.274;18.578;2022-09-29T07:58:43;7.18;;;3.30;;
35993;SDS011;22066;54.274;18.578;2022-09-29T08:01:10;7.60;;;4.55;;
35993;SDS011;22066;54.274;18.578;2022-09-29T08:03:37;5.40;;;3.15;;
35993;SDS011;22066;54.274;18.578;2022-09-29T08:06:05;7.72;;;3.33;;
35993;SDS011;22066;54.274;18.578;2022-09-29T08:08:33;8.98;;;4.25;;
35993;SDS011;22066;54.274;18.578;2022-09-29T08:11:01;7.03;;;3.88;;
35993;SDS011;22066;54.274;18.578;2022-09-29T08:13:27;6.35;;;3.25;;
35993;SDS011;22066;54.274;18.578;2022-09-29T08:15:58;6.37;;;3.63;;
35993;SDS011;22066;54.274;18.578;2022-09-29T08:18:25;7.35;;;3.67;;
35993;SDS011;22066;54.274;18.578;2022-09-29T08:20:51;5.20;;;2.97;;
35993;SDS011;22066;54.274;18.578;2022-09-29T08:23:18;6.93;;;3.10;;
35993;SDS011;22066;54.274;18.578;2022-09-29T08:25:44;9.82;;;3.42;;
35993;SDS011;22066;54.274;18.578;2022-09-29T08:28:10;5.40;;;3.40;;
35993;SDS011;22066;54.274;18.578;2022-09-29T08:30:36;5.80;;;3.58;;
35993;SDS011;22066;54.274;18.578;2022-09-29T08:33:02;6.55;;;4.32;;
35993;SDS011;22066;54.274;18.578;2022-09-29T08:35:32;6.13;;;3.70;;
35993;SDS011;22066;54.274;18.578;2022-09-29T08:37:58;6.32;;;3.35;;
35993;SDS011;22066;54.274;18.578;2022-09-29T08:40:28;6.55;;;3.90;;
35993;SDS011;22066;54.274;18.578;2022-09-29T08:43:09;7.80;;;3.88;;
35993;SDS011;22066;54.274;18.578;2022-09-29T08:45:48;9.73;;;3.67;;
35993;SDS011;22066;54.274;18.578;2022-09-29T08:48:17;8.18;;;3.08;;
35993;SDS011;22066;54.274;18.578;2022-09-29T08:50:55;5.90;;;3.42;;
35993;SDS011;22066;54.274;18.578;2022-09-29T08:53:23;5.47;;;3.17;;
35993;SDS011;22066;54.274;18.578;2022-09-29T08:55:51;6.15;;;3.58;;
35993;SDS011;22066;54.274;18.578;2022-09-29T08:58:18;5.22;;;3.13;;
35993;SDS011;22066;54.274;18.578;2022-09-29T09:00:51;4.50;;;2.53;;
35993;SDS011;22066;54.274;18.578;2022-09-29T09:11:23;5.38;;;2.75;;
35993;SDS011;22066;54.274;18.578;2022-09-29T09:14:35;6.28;;;2.95;;
35993;SDS011;22066;54.274;18.578;2022-09-29T09:16:46;5.32;;;2.58;;
35993;SDS011;22066;54.274;18.578;2022-09-29T09:27:01;6.93;;;2.60;;
35993;SDS011;22066;54.274;18.578;2022-09-29T09:29:32;5.82;;;2.75;;
35993;SDS011;22066;54.274;18.578;2022-09-29T09:32:19;6.78;;;3.30;;
35993;SDS011;22066;54.274;18.578;2022-09-29T09:37:23;5.15;;;2.80;;
35993;SDS011;22066;54.274;18.578;2022-09-29T09:42:36;4.30;;;2.20;;
35993;SDS011;22066;54.274;18.578;2022-09-29T09:47:39;6.35;;;2.13;;
35993;SDS011;22066;54.274;18.578;2022-09-29T09:50:25;5.50;;;2.20;;
35993;SDS011;22066;54.274;18.578;2022-09-29T09:52:52;4.97;;;2.70;;
35993;SDS011;22066;54.274;18.578;2022-09-29T09:55:21;5.57;;;2.58;;
35993;SDS011;22066;54.274;18.578;2022-09-29T10:02:53;5.20;;;2.90;;
35993;SDS011;22066;54.274;18.578;2022-09-29T10:05:20;4.78;;;2.60;;
35993;SDS011;22066;54.274;18.578;2022-09-29T10:07:50;4.60;;;2.50;;
35993;SDS011;22066;54.274;18.578;2022-09-29T10:10:17;5.40;;;3.10;;
35993;SDS011;22066;54.274;18.578;2022-09-29T10:12:44;4.90;;;2.63;;
35993;SDS011;22066;54.274;18.578;2022-09-29T10:15:18;8.52;;;3.25;;
35993;SDS011;22066;54.274;18.578;2022-09-29T10:17:45;6.78;;;3.05;;
35993;SDS011;22066;54.274;18.578;2022-09-29T10:20:13;6.15;;;2.90;;
35993;SDS011;22066;54.274;18.578;2022-09-29T10:22:52;5.32;;;3.05;;
35993;SDS011;22066;54.274;18.578;2022-09-29T10:25:19;5.43;;;2.85;;
35993;SDS011;22066;54.274;18.578;2022-09-29T10:27:46;6.80;;;3.42;;
35993;SDS011;22066;54.274;18.578;2022-09-29T10:30:33;5.25;;;3.15;;
35993;SDS011;22066;54.274;18.578;2022-09-29T10:33:00;5.47;;;2.70;;
35993;SDS011;22066;54.274;18.578;2022-09-29T10:35:27;5.68;;;3.03;;
35993;SDS011;22066;54.274;18.578;2022-09-29T10:38:19;4.63;;;2.45;;
35993;SDS011;22066;54.274;18.578;2022-09-29T10:40:53;6.40;;;2.83;;
35993;SDS011;22066;54.274;18.578;2022-09-29T10:45:48;5.22;;;3.00;;
35993;SDS011;22066;54.274;18.578;2022-09-29T10:48:14;7.82;;;2.80;;
35993;SDS011;22066;54.274;18.578;2022-09-29T10:55:57;5.03;;;2.88;;
35993;SDS011;22066;54.274;18.578;2022-09-29T10:58:36;4.47;;;2.60;;
35993;SDS011;22066;54.274;18.578;2022-09-29T11:01:08;4.88;;;2.63;;
35993;SDS011;22066;54.274;18.578;2022-09-29T11:03:36;4.72;;;2.58;;
35993;SDS011;22066;54.274;18.578;2022-09-29T11:06:04;5.15;;;2.53;;
35993;SDS011;22066;54.274;18.578;2022-09-29T11:08:30;6.57;;;2.75;;
35993;SDS011;22066;54.274;18.578;2022-09-29T11:11:02;4.28;;;2.30;;
35993;SDS011;22066;54.274;18.578;2022-09-29T11:13:36;5.15;;;2.70;;
35993;SDS011;22066;54.274;18.578;2022-09-29T11:16:25;4.55;;;2.38;;
35993;SDS011;22066;54.274;18.578;2022-09-29T11:18:49;8.70;;;3.58;;
35993;SDS011;22066;54.274;18.578;2022-09-29T11:26:14;8.07;;;4.85;;
35993;SDS011;22066;54.274;18.578;2022-09-29T11:31:31;16.50;;;8.98;;
35993;SDS011;22066;54.274;18.578;2022-09-29T11:36:34;8.50;;;4.53;;
35993;SDS011;22066;54.274;18.578;2022-09-29T11:49:39;16.92;;;6.65;;
35993;SDS011;22066;54.274;18.578;2022-09-29T11:55:11;5.78;;;2.65;;
35993;SDS011;22066;54.274;18.578;2022-09-29T11:57:54;6.22;;;2.80;;
35993;SDS011;22066;54.274;18.578;2022-09-29T12:03:26;7.88;;;2.92;;
35993;SDS011;22066;54.274;18.578;2022-09-29T12:06:38;10.63;;;4.75;;
35993;SDS011;22066;54.274;18.578;2022-09-29T12:14:06;9.95;;;3.10;;
35993;SDS011;22066;54.274;18.578;2022-09-29T12:16:34;6.40;;;3.50;;
35993;SDS011;22066;54.274;18.578;2022-09-29T12:19:09;12.32;;;4.10;;
35993;SDS011;22066;54.274;18.578;2022-09-29T12:21:40;9.57;;;3.85;;
35993;SDS011;22066;54.274;18.578;2022-09-29T12:24:10;6.65;;;2.90;;
35993;SDS011;22066;54.274;18.578;2022-09-29T12:26:39;7.50;;;3.95;;
35993;SDS011;22066;54.274;18.578;2022-09-29T12:31:44;6.72;;;3.88;;
35993;SDS011;22066;54.274;18.578;2022-09-29T12:34:13;7.88;;;4.22;;
35993;SDS011;22066;54.274;18.578;2022-09-29T12:39:43;7.95;;;3.78;;
35993;SDS011;22066;54.274;18.578;2022-09-29T12:47:22;7.75;;;3.47;;
35993;SDS011;22066;54.274;18.578;2022-09-29T12:49:59;7.32;;;3.63;;
35993;SDS011;22066;54.274;18.578;2022-09-29T12:52:28;6.40;;;3.60;;
35993;SDS011;22066;54.274;18.578;2022-09-29T12:54:59;8.38;;;3.50;;
35993;SDS011;22066;54.274;18.578;2022-09-29T12:57:36;7.82;;;3.13;;
35993;SDS011;22066;54.274;18.578;2022-09-29T13:07:47;5.90;;;2.92;;
35993;SDS011;22066;54.274;18.578;2022-09-29T13:26:10;5.72;;;2.90;;
35993;SDS011;22066;54.274;18.578;2022-09-29T13:28:39;7.30;;;3.45;;
35993;SDS011;22066;54.274;18.578;2022-09-29T13:31:07;5.53;;;3.08;;
35993;SDS011;22066;54.274;18.578;2022-09-29T13:33:34;5.53;;;2.90;;
35993;SDS011;22066;54.274;18.578;2022-09-29T13:36:00;6.32;;;2.58;;
35993;SDS011;22066;54.274;18.578;2022-09-29T13:38:28;5.68;;;2.63;;
35993;SDS011;22066;54.274;18.578;2022-09-29T13:59:31;5.55;;;2.40;;
35993;SDS011;22066;54.274;18.578;2022-09-29T14:01:58;5.38;;;2.53;;
35993;SDS011;22066;54.274;18.578;2022-09-29T14:06:57;5.10;;;2.38;;
35993;SDS011;22066;54.274;18.578;2022-09-29T14:09:23;5.38;;;2.65;;
35993;SDS011;22066;54.274;18.578;2022-09-29T14:11:57;6.95;;;2.50;;
35993;SDS011;22066;54.274;18.578;2022-09-29T14:14:33;4.60;;;2.30;;
35993;SDS011;22066;54.274;18.578;2022-09-29T14:17:03;4.22;;;2.30;;
35993;SDS011;22066;54.274;18.578;2022-09-29T14:32:57;5.15;;;3.00;;
35993;SDS011;22066;54.274;18.578;2022-09-29T14:38:24;5.25;;;3.05;;
35993;SDS011;22066;54.274;18.578;2022-09-29T14:41:44;6.10;;;3.42;;
35993;SDS011;22066;54.274;18.578;2022-09-29T14:57:24;6.57;;;3.13;;
35993;SDS011;22066;54.274;18.578;2022-09-29T15:00:00;5.43;;;2.15;;
35993;SDS011;22066;54.274;18.578;2022-09-29T15:02:28;6.03;;;2.47;;
35993;SDS011;22066;54.274;18.578;2022-09-29T15:04:54;5.80;;;2.80;;
35993;SDS011;22066;54.274;18.578;2022-09-29T15:07:21;6.55;;;3.20;;
35993;SDS011;22066;54.274;18.578;2022-09-29T15:09:49;4.90;;;3.00;;
35993;SDS011;22066;54.274;18.578;2022-09-29T15:12:26;4.80;;;2.42;;
35993;SDS011;22066;54.274;18.578;2022-09-29T15:14:54;5.20;;;2.63;;
35993;SDS011;22066;54.274;18.578;2022-09-29T15:19:50;11.05;;;2.85;;
35993;SDS011;22066;54.274;18.578;2022-09-29T15:27:31;6.68;;;2.70;;
35993;SDS011;22066;54.274;18.578;2022-09-29T15:29:57;6.75;;;2.72;;
35993;SDS011;22066;54.274;18.578;2022-09-29T15:32:25;8.38;;;3.13;;
35993;SDS011;22066;54.274;18.578;2022-09-29T15:34:53;13.85;;;3.33;;
35993;SDS011;22066;54.274;18.578;2022-09-29T15:37:24;5.80;;;2.75;;
35993;SDS011;22066;54.274;18.578;2022-09-29T15:39:51;5.22;;;2.70;;
35993;SDS011;22066;54.274;18.578;2022-09-29T15:42:19;7.75;;;2.83;;
35993;SDS011;22066;54.274;18.578;2022-09-29T15:44:52;4.80;;;2.58;;
35993;SDS011;22066;54.274;18.578;2022-09-29T15:47:26;5.55;;;2.53;;
35993;SDS011;22066;54.274;18.578;2022-09-29T15:49:53;8.45;;;2.70;;
35993;SDS011;22066;54.274;18.578;2022-09-29T15:52:19;5.90;;;2.50;;
35993;SDS011;22066;54.274;18.578;2022-09-29T15:54:47;5.53;;;2.33;;
35993;SDS011;22066;54.274;18.578;2022-09-29T16:03:33;6.60;;;2.78;;
35993;SDS011;22066;54.274;18.578;2022-09-29T16:05:33;6.32;;;2.70;;
35993;SDS011;22066;54.274;18.578;2022-09-29T16:08:13;5.47;;;2.60;;
35993;SDS011;22066;54.274;18.578;2022-09-29T16:10:59;5.57;;;2.58;;
35993;SDS011;22066;54.274;18.578;2022-09-29T16:13:27;5.00;;;2.67;;
35993;SDS011;22066;54.274;18.578;2022-09-29T16:15:55;4.57;;;2.55;;
35993;SDS011;22066;54.274;18.578;2022-09-29T16:20:51;5.78;;;2.70;;
35993;SDS011;22066;54.274;18.578;2022-09-29T16:23:23;6.32;;;2.90;;
35993;SDS011;22066;54.274;18.578;2022-09-29T16:28:31;5.45;;;2.90;;
35993;SDS011;22066;54.274;18.578;2022-09-29T16:31:01;7.10;;;2.88;;
35993;SDS011;22066;54.274;18.578;2022-09-29T16:33:27;6.45;;;3.00;;
35993;SDS011;22066;54.274;18.578;2022-09-29T16:38:24;8.90;;;4.03;;
35993;SDS011;22066;54.274;18.578;2022-09-29T16:40:57;5.60;;;3.00;;
35993;SDS011;22066;54.274;18.578;2022-09-29T16:43:29;6.75;;;3.28;;
35993;SDS011;22066;54.274;18.578;2022-09-29T16:45:56;7.63;;;3.47;;
35993;SDS011;22066;54.274;18.578;2022-09-29T16:48:24;5.82;;;3.20;;
35993;SDS011;22066;54.274;18.578;2022-09-29T16:50:59;5.63;;;3.50;;
35993;SDS011;22066;54.274;18.578;2022-09-29T16:53:32;4.72;;;2.40;;
35993;SDS011;22066;54.274;18.578;2022-09-29T16:56:43;8.35;;;3.47;;
35993;SDS011;22066;54.274;18.578;2022-09-29T16:58:45;6.00;;;3.33;;
35993;SDS011;22066;54.274;18.578;2022-09-29T17:01:26;6.32;;;3.25;;
35993;SDS011;22066;54.274;18.578;2022-09-29T17:03:52;7.80;;;3.47;;
35993;SDS011;22066;54.274;18.578;2022-09-29T17:06:18;7.13;;;3.05;;
35993;SDS011;22066;54.274;18.578;2022-09-29T17:08:44;5.85;;;2.95;;
35993;SDS011;22066;54.274;18.578;2022-09-29T17:11:10;7.75;;;3.50;;
35993;SDS011;22066;54.274;18.578;2022-09-29T17:13:36;8.32;;;3.35;;
35993;SDS011;22066;54.274;18.578;2022-09-29T17:16:03;6.78;;;3.72;;
35993;SDS011;22066;54.274;18.578;2022-09-29T17:20:57;5.53;;;2.75;;
35993;SDS011;22066;54.274;18.578;2022-09-29T17:23:23;6.00;;;3.58;;
35993;SDS011;22066;54.274;18.578;2022-09-29T17:25:49;7.55;;;3.10;;
35993;SDS011;22066;54.274;18.578;2022-09-29T17:30:42;7.97;;;4.22;;
35993;SDS011;22066;54.274;18.578;2022-09-29T17:33:09;7.28;;;3.45;;
35993;SDS011;22066;54.274;18.578;2022-09-29T17:35:37;6.90;;;3.22;;
35993;SDS011;22066;54.274;18.578;2022-09-29T17:38:03;10.40;;;4.22;;
35993;SDS011;22066;54.274;18.578;2022-09-29T17:43:00;11.55;;;6.75;;
35993;SDS011;22066;54.274;18.578;2022-09-29T17:45:27;6.95;;;4.07;;
35993;SDS011;22066;54.274;18.578;2022-09-29T17:47:54;7.40;;;4.20;;
35993;SDS011;22066;54.274;18.578;2022-09-29T17:50:24;9.80;;;5.45;;
35993;SDS011;22066;54.274;18.578;2022-09-29T17:52:51;25.08;;;5.45;;
35993;SDS011;22066;54.274;18.578;2022-09-29T17:55:17;8.30;;;3.95;;
35993;SDS011;22066;54.274;18.578;2022-09-29T17:57:50;7.72;;;4.18;;
35993;SDS011;22066;54.274;18.578;2022-09-29T18:02:49;10.82;;;3.92;;
35993;SDS011;22066;54.274;18.578;2022-09-29T18:05:18;8.13;;;3.97;;
35993;SDS011;22066;54.274;18.578;2022-09-29T18:07:48;10.70;;;4.78;;
35993;SDS011;22066;54.274;18.578;2022-09-29T18:10:17;13.95;;;7.25;;
35993;SDS011;22066;54.274;18.578;2022-09-29T18:12:43;32.92;;;15.85;;
35993;SDS011;22066;54.274;18.578;2022-09-29T18:15:09;38.83;;;18.23;;
35993;SDS011;22066;54.274;18.578;2022-09-29T18:17:36;30.55;;;15.75;;
35993;SDS011;22066;54.274;18.578;2022-09-29T18:22:38;30.73;;;15.73;;